createdAt,value
2022-09-04T00:00:36.364Z,997.83
2022-09-04T00:01:39.491Z,997.88
2022-09-04T00:02:37.344Z,997.86
2022-09-04T00:03:36.352Z,997.90
2022-09-04T00:04:36.387Z,997.88
2022-09-04T00:05:36.327Z,997.90
2022-09-04T00:06:36.297Z,997.87
2022-09-04T00:07:36.285Z,997.88
2022-09-04T00:08:36.275Z,997.92
2022-09-04T00:09:36.261Z,997.91
2022-09-04T00:10:36.246Z,997.89
2022-09-04T00:11:36.255Z,997.93
2022-09-04T00:12:36.226Z,997.96
2022-09-04T00:13:36.215Z,997.91
2022-09-04T00:14:36.209Z,997.98
2022-09-04T00:15:36.194Z,998.04
2022-09-04T00:16:36.219Z,997.94
2022-09-04T00:17:36.186Z,997.93
2022-09-04T00:18:36.165Z,998.00
2022-09-04T00:19:36.157Z,997.98
2022-09-04T00:20:36.136Z,998.05
2022-09-04T00:21:36.124Z,998.03
2022-09-04T00:22:36.136Z,998.07
2022-09-04T00:23:36.096Z,998.07
2022-09-04T00:24:36.094Z,998.02
2022-09-04T00:25:36.080Z,997.97
2022-09-04T00:26:36.066Z,998.03
2022-09-04T00:27:36.149Z,998.10
2022-09-04T00:28:36.065Z,998.06
2022-09-04T00:29:36.036Z,998.09
2022-09-04T00:30:36.054Z,998.06
2022-09-04T00:31:36.014Z,998.11
2022-09-04T00:32:36.006Z,998.11
2022-09-04T00:33:36.007Z,998.08
2022-09-04T00:34:35.976Z,998.02
2022-09-04T00:35:35.967Z,998.10
2022-09-04T00:36:35.957Z,997.95
2022-09-04T00:37:35.944Z,997.99
2022-09-04T00:38:35.936Z,997.99
2022-09-04T00:39:35.984Z,997.98
2022-09-04T00:40:35.915Z,998.01
2022-09-04T00:41:35.898Z,998.04
2022-09-04T00:42:35.887Z,998.04
2022-09-04T00:43:35.870Z,998.07
2022-09-04T00:44:35.866Z,998.09
2022-09-04T00:45:35.892Z,998.09
2022-09-04T00:46:35.838Z,998.19
2022-09-04T00:47:35.836Z,998.14
2022-09-04T00:48:35.818Z,998.16
2022-09-04T00:49:35.809Z,998.18
2022-09-04T00:50:35.817Z,998.23
2022-09-04T00:51:35.778Z,998.20
2022-09-04T00:52:36.777Z,998.15
2022-09-04T00:53:35.759Z,998.24
2022-09-04T00:54:35.758Z,998.20
2022-09-04T00:55:35.739Z,998.20
2022-09-04T00:56:35.761Z,998.21
2022-09-04T00:57:35.709Z,998.24
2022-09-04T00:58:35.707Z,998.23
2022-09-04T00:59:35.688Z,998.26
2022-09-04T01:00:35.679Z,998.23
2022-09-04T01:01:36.666Z,998.23
2022-09-04T01:02:35.744Z,998.30
2022-09-04T01:03:35.647Z,998.23
2022-09-04T01:04:35.639Z,998.32
2022-09-04T01:05:35.622Z,998.24
2022-09-04T01:06:35.618Z,998.27
2022-09-04T01:07:35.629Z,998.25
2022-09-04T01:08:35.589Z,998.29
2022-09-04T01:09:35.571Z,998.26
2022-09-04T01:10:35.568Z,998.34
2022-09-04T01:11:35.555Z,998.32
2022-09-04T01:12:35.539Z,998.29
2022-09-04T01:13:35.551Z,998.29
2022-09-04T01:14:35.519Z,998.35
2022-09-04T01:15:35.511Z,998.33
2022-09-04T01:16:35.565Z,998.35
2022-09-04T01:17:35.483Z,998.35
2022-09-04T01:18:35.478Z,998.30
2022-09-04T01:19:35.508Z,998.36
2022-09-04T01:20:35.449Z,998.38
2022-09-04T01:21:35.440Z,998.38
2022-09-04T01:22:35.431Z,998.37
2022-09-04T01:23:35.410Z,998.42
2022-09-04T01:24:35.410Z,998.37
2022-09-04T01:25:35.418Z,998.34
2022-09-04T01:26:35.380Z,998.34
2022-09-04T01:27:35.369Z,998.38
2022-09-04T01:28:35.360Z,998.36
2022-09-04T01:29:35.349Z,998.44
2022-09-04T01:30:35.340Z,998.39
2022-09-04T01:31:35.373Z,998.42
2022-09-04T01:32:35.310Z,998.41
2022-09-04T01:33:35.309Z,998.41
2022-09-04T01:34:35.290Z,998.43
2022-09-04T01:35:35.280Z,998.45
2022-09-04T01:36:35.271Z,998.49
2022-09-04T01:37:35.271Z,998.46
2022-09-04T01:38:35.241Z,998.44
2022-09-04T01:39:35.312Z,998.47
2022-09-04T01:40:35.933Z,998.50
2022-09-04T01:41:38.339Z,998.45
2022-09-04T01:42:35.220Z,998.46
2022-09-04T01:43:35.190Z,998.47
2022-09-04T01:44:35.171Z,998.45
2022-09-04T01:45:35.189Z,998.48
2022-09-04T01:46:35.150Z,998.49
2022-09-04T01:47:35.149Z,998.40
2022-09-04T01:48:35.152Z,998.43
2022-09-04T01:49:35.121Z,998.44
2022-09-04T01:50:35.102Z,998.41
2022-09-04T01:51:35.099Z,998.44
2022-09-04T01:52:35.081Z,998.41
2022-09-04T01:53:35.072Z,998.42
2022-09-04T01:54:35.082Z,998.41
2022-09-04T01:55:35.052Z,998.37
2022-09-04T01:56:35.032Z,998.45
2022-09-04T01:57:35.022Z,998.43
2022-09-04T01:58:35.011Z,998.43
2022-09-04T01:59:35.009Z,998.42
2022-09-04T02:00:35.012Z,998.42
2022-09-04T02:01:35.060Z,998.49
2022-09-04T02:02:34.998Z,998.47
2022-09-04T02:03:34.961Z,998.48
2022-09-04T02:04:34.943Z,998.47
2022-09-04T02:05:34.940Z,998.48
2022-09-04T02:06:34.943Z,998.50
2022-09-04T02:07:34.913Z,998.52
2022-09-04T02:08:34.902Z,998.49
2022-09-04T02:09:34.892Z,998.53
2022-09-04T02:10:34.878Z,998.54
2022-09-04T02:11:34.871Z,998.52
2022-09-04T02:12:34.872Z,998.53
2022-09-04T02:13:34.850Z,998.48
2022-09-04T02:14:34.832Z,998.52
2022-09-04T02:15:34.822Z,998.49
2022-09-04T02:16:34.905Z,998.49
2022-09-04T02:17:34.822Z,998.51
2022-09-04T02:18:34.786Z,998.53
2022-09-04T02:19:34.772Z,998.61
2022-09-04T02:20:34.764Z,998.61
2022-09-04T02:21:34.752Z,998.61
2022-09-04T02:22:34.743Z,998.69
2022-09-04T02:23:34.772Z,998.65
2022-09-04T02:24:34.713Z,998.62
2022-09-04T02:25:34.711Z,998.65
2022-09-04T02:26:34.694Z,998.63
2022-09-04T02:27:34.691Z,998.66
2022-09-04T02:28:34.672Z,998.68
2022-09-04T02:29:34.682Z,998.65
2022-09-04T02:30:34.657Z,998.70
2022-09-04T02:31:34.734Z,998.66
2022-09-04T02:32:34.626Z,998.73
2022-09-04T02:33:34.620Z,998.73
2022-09-04T02:34:34.604Z,998.68
2022-09-04T02:35:34.626Z,998.71
2022-09-04T02:36:34.582Z,998.73
2022-09-04T02:37:34.571Z,998.71
2022-09-04T02:38:34.554Z,998.73
2022-09-04T02:39:34.586Z,998.69
2022-09-04T02:40:34.555Z,998.75
2022-09-04T02:41:34.523Z,998.67
2022-09-04T02:42:34.513Z,998.75
2022-09-04T02:43:34.504Z,998.75
2022-09-04T02:44:34.484Z,998.73
2022-09-04T02:45:34.473Z,998.74
2022-09-04T02:46:34.550Z,998.73
2022-09-04T02:47:34.463Z,998.75
2022-09-04T02:48:34.444Z,998.77
2022-09-04T02:49:34.434Z,998.74
2022-09-04T02:50:34.414Z,998.79
2022-09-04T02:51:34.412Z,998.79
2022-09-04T02:52:34.414Z,998.73
2022-09-04T02:53:34.399Z,998.75
2022-09-04T02:54:34.376Z,998.76
2022-09-04T02:55:34.364Z,998.79
2022-09-04T02:56:34.353Z,998.73
2022-09-04T02:57:34.344Z,998.81
2022-09-04T02:58:34.345Z,998.81
2022-09-04T02:59:34.322Z,998.84
2022-09-04T03:00:34.341Z,998.85
2022-09-04T03:01:34.343Z,998.93
2022-09-04T03:02:34.284Z,998.88
2022-09-04T03:03:34.295Z,998.83
2022-09-04T03:04:34.254Z,998.90
2022-09-04T03:05:34.244Z,998.81
2022-09-04T03:06:34.235Z,998.91
2022-09-04T03:07:34.224Z,998.85
2022-09-04T03:08:36.148Z,998.83
2022-09-04T03:09:34.225Z,998.87
2022-09-04T03:10:34.194Z,998.77
2022-09-04T03:11:34.182Z,998.81
2022-09-04T03:12:34.165Z,998.84
2022-09-04T03:13:34.157Z,998.85
2022-09-04T03:14:34.145Z,998.91
2022-09-04T03:15:34.245Z,998.88
2022-09-04T03:16:34.167Z,998.86
2022-09-04T03:17:34.114Z,998.88
2022-09-04T03:18:34.095Z,998.90
2022-09-04T03:19:35.083Z,998.92
2022-09-04T03:20:34.075Z,998.90
2022-09-04T03:21:34.093Z,998.95
2022-09-04T03:22:34.046Z,998.93
2022-09-04T03:23:34.045Z,998.96
2022-09-04T03:24:34.033Z,998.93
2022-09-04T03:25:34.024Z,998.93
2022-09-04T03:26:34.005Z,998.93
2022-09-04T03:27:34.073Z,998.93
2022-09-04T03:28:33.988Z,998.96
2022-09-04T03:29:33.975Z,998.99
2022-09-04T03:30:33.962Z,998.97
2022-09-04T03:31:34.132Z,998.96
2022-09-04T03:32:33.939Z,999.02
2022-09-04T03:33:33.945Z,999.05
2022-09-04T03:34:33.916Z,999.01
2022-09-04T03:35:33.906Z,998.98
2022-09-04T03:36:33.888Z,999.04
2022-09-04T03:37:33.884Z,999.03
2022-09-04T03:38:33.901Z,999.04
2022-09-04T03:39:33.892Z,999.05
2022-09-04T03:40:33.848Z,999.02
2022-09-04T03:41:33.837Z,999.04
2022-09-04T03:42:33.818Z,999.02
2022-09-04T03:43:33.814Z,999.00
2022-09-04T03:44:33.818Z,998.99
2022-09-04T03:45:33.795Z,999.01
2022-09-04T03:46:33.819Z,999.01
2022-09-04T03:47:33.768Z,999.01
2022-09-04T03:48:33.756Z,998.99
2022-09-04T03:49:33.757Z,999.08
2022-09-04T03:50:33.750Z,999.04
2022-09-04T03:51:33.717Z,998.99
2022-09-04T03:52:33.717Z,998.97
2022-09-04T03:53:33.697Z,999.05
2022-09-04T03:54:33.687Z,999.05
2022-09-04T03:55:33.697Z,999.10
2022-09-04T03:56:33.658Z,999.08
2022-09-04T03:57:33.656Z,999.07
2022-09-04T03:58:33.637Z,999.03
2022-09-04T03:59:33.628Z,999.03
2022-09-04T04:00:33.628Z,999.05
2022-09-04T04:01:33.628Z,999.08
2022-09-04T04:02:33.616Z,999.08
2022-09-04T04:03:33.587Z,999.04
2022-09-04T04:04:33.568Z,999.03
2022-09-04T04:05:33.608Z,999.03
2022-09-04T04:06:33.547Z,999.10
2022-09-04T04:07:33.558Z,999.01
2022-09-04T04:08:33.519Z,999.08
2022-09-04T04:09:33.517Z,999.12
2022-09-04T04:10:33.555Z,999.09
2022-09-04T04:11:33.488Z,999.13
2022-09-04T04:12:33.516Z,999.14
2022-09-04T04:13:33.487Z,999.14
2022-09-04T04:14:33.455Z,999.13
2022-09-04T04:15:33.481Z,999.19
2022-09-04T04:16:33.513Z,999.16
2022-09-04T04:17:33.431Z,999.13
2022-09-04T04:18:33.438Z,999.15
2022-09-04T04:19:33.398Z,999.06
2022-09-04T04:20:33.386Z,999.12
2022-09-04T04:21:33.376Z,999.11
2022-09-04T04:22:33.359Z,999.16
2022-09-04T04:23:33.348Z,999.16
2022-09-04T04:24:33.358Z,999.16
2022-09-04T04:25:33.328Z,999.21
2022-09-04T04:26:33.320Z,999.16
2022-09-04T04:27:33.312Z,999.18
2022-09-04T04:28:33.292Z,999.18
2022-09-04T04:29:33.288Z,999.19
2022-09-04T04:30:33.316Z,999.26
2022-09-04T04:31:33.314Z,999.25
2022-09-04T04:32:33.249Z,999.21
2022-09-04T04:33:33.240Z,999.26
2022-09-04T04:34:33.227Z,999.24
2022-09-04T04:35:33.216Z,999.25
2022-09-04T04:36:33.220Z,999.28
2022-09-04T04:37:33.203Z,999.32
2022-09-04T04:38:33.185Z,999.30
2022-09-04T04:39:33.222Z,999.28
2022-09-04T04:40:33.157Z,999.29
2022-09-04T04:41:33.176Z,999.31
2022-09-04T04:42:33.131Z,999.34
2022-09-04T04:43:33.127Z,999.38
2022-09-04T04:44:33.109Z,999.37
2022-09-04T04:45:33.101Z,999.37
2022-09-04T04:46:33.150Z,999.36
2022-09-04T04:47:33.109Z,999.41
2022-09-04T04:48:33.060Z,999.43
2022-09-04T04:49:33.057Z,999.44
2022-09-04T04:50:33.049Z,999.41
2022-09-04T04:51:33.029Z,999.46
2022-09-04T04:52:33.019Z,999.44
2022-09-04T04:53:33.029Z,999.45
2022-09-04T04:54:32.994Z,999.46
2022-09-04T04:55:32.989Z,999.41
2022-09-04T04:56:32.980Z,999.48
2022-09-04T04:57:32.968Z,999.49
2022-09-04T04:58:32.960Z,999.50
2022-09-04T04:59:32.960Z,999.50
2022-09-04T05:00:32.950Z,999.52
2022-09-04T05:01:32.993Z,999.52
2022-09-04T05:02:32.989Z,999.60
2022-09-04T05:03:32.900Z,999.59
2022-09-04T05:04:32.891Z,999.60
2022-09-04T05:05:32.898Z,999.66
2022-09-04T05:06:32.898Z,999.67
2022-09-04T05:07:32.908Z,999.69
2022-09-04T05:08:32.880Z,999.66
2022-09-04T05:09:32.828Z,999.68
2022-09-04T05:10:32.811Z,999.73
2022-09-04T05:11:32.828Z,999.72
2022-09-04T05:12:32.790Z,999.76
2022-09-04T05:13:32.782Z,999.80
2022-09-04T05:14:32.763Z,999.78
2022-09-04T05:15:32.771Z,999.79
2022-09-04T05:16:32.766Z,999.80
2022-09-04T05:17:32.763Z,999.79
2022-09-04T05:18:32.721Z,999.82
2022-09-04T05:19:32.712Z,999.87
2022-09-04T05:20:32.699Z,999.83
2022-09-04T05:21:32.692Z,999.89
2022-09-04T05:22:34.285Z,999.89
2022-09-04T05:23:32.673Z,999.93
2022-09-04T05:24:32.651Z,999.91
2022-09-04T05:25:32.642Z,999.91
2022-09-04T05:26:32.631Z,999.95
2022-09-04T05:27:32.621Z,999.97
2022-09-04T05:28:32.632Z,999.99
2022-09-04T05:29:32.830Z,999.97
2022-09-04T05:30:32.583Z,1000.00
2022-09-04T05:31:32.633Z,999.98
2022-09-04T05:32:33.565Z,1000.04
2022-09-04T05:33:32.551Z,1000.04
2022-09-04T05:34:32.562Z,1000.00
2022-09-04T05:35:39.594Z,1000.03
2022-09-04T05:36:32.513Z,1000.01
2022-09-04T05:37:35.154Z,1000.07
2022-09-04T05:38:32.493Z,1000.08
2022-09-04T05:39:32.524Z,1000.04
2022-09-04T05:40:32.493Z,1000.08
2022-09-04T05:41:32.465Z,1000.06
2022-09-04T05:42:32.444Z,1000.09
2022-09-04T05:43:32.443Z,1000.11
2022-09-04T05:44:32.425Z,1000.14
2022-09-04T05:45:32.434Z,1000.11
2022-09-04T05:46:32.562Z,1000.12
2022-09-04T05:47:32.393Z,1000.16
2022-09-04T05:48:32.384Z,1000.15
2022-09-04T05:49:32.367Z,1000.16
2022-09-04T05:50:32.370Z,1000.19
2022-09-04T05:51:34.842Z,1000.17
2022-09-04T05:52:32.334Z,1000.19
2022-09-04T05:53:32.325Z,1000.16
2022-09-04T05:54:32.334Z,1000.16
2022-09-04T05:55:32.296Z,1000.16
2022-09-04T05:56:32.355Z,1000.16
2022-09-04T05:57:32.275Z,1000.15
2022-09-04T05:58:32.275Z,1000.16
2022-09-04T05:59:32.256Z,1000.18
2022-09-04T06:00:32.249Z,1000.22
2022-09-04T06:01:32.294Z,1000.27
2022-09-04T06:02:32.332Z,1000.26
2022-09-04T06:03:32.206Z,1000.30
2022-09-04T06:04:32.197Z,1000.24
2022-09-04T06:05:32.183Z,1000.32
2022-09-04T06:06:32.175Z,1000.30
2022-09-04T06:07:32.166Z,1000.28
2022-09-04T06:08:32.443Z,1000.30
2022-09-04T06:09:32.137Z,1000.27
2022-09-04T06:10:32.144Z,1000.30
2022-09-04T06:11:32.121Z,1000.32
2022-09-04T06:12:32.106Z,1000.33
2022-09-04T06:13:32.108Z,1000.34
2022-09-04T06:14:32.117Z,1000.35
2022-09-04T06:15:32.066Z,1000.41
2022-09-04T06:16:32.069Z,1000.41
2022-09-04T06:17:32.047Z,1000.44
2022-09-04T06:18:32.039Z,1000.44
2022-09-04T06:19:32.018Z,1000.37
2022-09-04T06:20:32.066Z,1000.42
2022-09-04T06:21:31.998Z,1000.40
2022-09-04T06:22:31.990Z,1000.43
2022-09-04T06:23:31.989Z,1000.41
2022-09-04T06:24:31.998Z,1000.43
2022-09-04T06:25:31.975Z,1000.48
2022-09-04T06:26:31.967Z,1000.49
2022-09-04T06:27:34.544Z,1000.53
2022-09-04T06:28:31.917Z,1000.50
2022-09-04T06:29:31.917Z,1000.56
2022-09-04T06:30:31.906Z,1000.55
2022-09-04T06:31:32.019Z,1000.59
2022-09-04T06:32:31.878Z,1000.62
2022-09-04T06:33:31.867Z,1000.68
2022-09-04T06:34:31.851Z,1000.64
2022-09-04T06:35:31.842Z,1000.70
2022-09-04T06:36:31.838Z,1000.67
2022-09-04T06:37:31.849Z,1000.72
2022-09-04T06:38:31.807Z,1000.70
2022-09-04T06:39:31.846Z,1000.72
2022-09-04T06:40:31.781Z,1000.69
2022-09-04T06:41:31.768Z,1000.68
2022-09-04T06:42:31.758Z,1000.75
2022-09-04T06:43:31.768Z,1000.74
2022-09-04T06:44:31.740Z,1000.74
2022-09-04T06:45:31.729Z,1000.78
2022-09-04T06:46:31.761Z,1000.74
2022-09-04T06:47:31.708Z,1000.75
2022-09-04T06:48:31.717Z,1000.77
2022-09-04T06:49:31.678Z,1000.76
2022-09-04T06:50:31.669Z,1000.75
2022-09-04T06:51:32.651Z,1000.77
2022-09-04T06:52:31.650Z,1000.81
2022-09-04T06:53:31.633Z,1000.80
2022-09-04T06:54:32.238Z,1000.81
2022-09-04T06:55:31.611Z,1000.73
2022-09-04T06:56:31.601Z,1000.80
2022-09-04T06:57:31.589Z,1000.80
2022-09-04T06:58:31.570Z,1000.79
2022-09-04T06:59:31.560Z,1000.76
2022-09-04T07:00:31.604Z,1000.75
2022-09-04T07:01:31.638Z,1000.81
2022-09-04T07:02:31.633Z,1000.78
2022-09-04T07:03:31.525Z,1000.82
2022-09-04T07:04:31.502Z,1000.76
2022-09-04T07:05:31.491Z,1000.77
2022-09-04T07:06:31.500Z,1000.79
2022-09-04T07:07:31.472Z,1000.83
2022-09-04T07:08:31.472Z,1000.83
2022-09-04T07:09:31.450Z,1000.86
2022-09-04T07:10:31.440Z,1000.91
2022-09-04T07:11:31.452Z,1000.91
2022-09-04T07:12:31.422Z,1000.86
2022-09-04T07:13:31.413Z,1000.93
2022-09-04T07:14:31.403Z,1000.88
2022-09-04T07:15:31.450Z,1000.95
2022-09-04T07:16:31.401Z,1000.95
2022-09-04T07:17:32.102Z,1000.90
2022-09-04T07:18:31.352Z,1000.92
2022-09-04T07:19:31.333Z,1000.90
2022-09-04T07:20:31.330Z,1000.87
2022-09-04T07:21:31.343Z,1000.94
2022-09-04T07:22:31.362Z,1000.93
2022-09-04T07:23:31.287Z,1000.91
2022-09-04T07:24:31.282Z,1000.91
2022-09-04T07:25:31.278Z,1000.91
2022-09-04T07:26:31.265Z,1000.94
2022-09-04T07:27:31.244Z,1000.96
2022-09-04T07:28:31.256Z,1001.02
2022-09-04T07:29:31.215Z,1000.92
2022-09-04T07:30:31.225Z,1000.93
2022-09-04T07:31:31.227Z,1001.00
2022-09-04T07:32:31.184Z,1001.02
2022-09-04T07:33:31.205Z,1001.00
2022-09-04T07:34:31.164Z,1001.01
2022-09-04T07:35:31.155Z,1001.01
2022-09-04T07:36:32.405Z,1001.06
2022-09-04T07:37:31.128Z,1001.07
2022-09-04T07:38:31.120Z,1001.05
2022-09-04T07:39:31.172Z,1001.05
2022-09-04T07:40:31.094Z,1001.13
2022-09-04T07:41:31.095Z,1001.08
2022-09-04T07:42:31.150Z,1001.13
2022-09-04T07:43:31.058Z,1001.18
2022-09-04T07:44:31.046Z,1001.16
2022-09-04T07:45:31.046Z,1001.17
2022-09-04T07:46:31.064Z,1001.20
2022-09-04T07:47:31.007Z,1001.17
2022-09-04T07:48:31.004Z,1001.21
2022-09-04T07:49:30.987Z,1001.22
2022-09-04T07:50:30.997Z,1001.22
2022-09-04T07:51:30.995Z,1001.24
2022-09-04T07:52:30.960Z,1001.24
2022-09-04T07:53:30.938Z,1001.27
2022-09-04T07:54:30.955Z,1001.25
2022-09-04T07:55:30.918Z,1001.30
2022-09-04T07:56:30.936Z,1001.28
2022-09-04T07:57:30.897Z,1001.23
2022-09-04T07:58:30.886Z,1001.25
2022-09-04T07:59:30.880Z,1001.28
2022-09-04T08:00:30.872Z,1001.33
2022-09-04T08:01:30.899Z,1001.29
2022-09-04T08:02:30.888Z,1001.27
2022-09-04T08:03:30.838Z,1001.29
2022-09-04T08:04:30.846Z,1001.31
2022-09-04T08:05:30.802Z,1001.27
2022-09-04T08:06:30.801Z,1001.32
2022-09-04T08:07:30.780Z,1001.23
2022-09-04T08:08:30.788Z,1001.31
2022-09-04T08:09:30.751Z,1001.29
2022-09-04T08:10:30.750Z,1001.33
2022-09-04T08:11:30.760Z,1001.38
2022-09-04T08:12:30.720Z,1001.36
2022-09-04T08:13:30.742Z,1001.30
2022-09-04T08:14:30.710Z,1001.40
2022-09-04T08:15:30.726Z,1001.42
2022-09-04T08:16:30.681Z,1001.35
2022-09-04T08:17:30.662Z,1001.46
2022-09-04T08:18:30.661Z,1001.46
2022-09-04T08:19:30.671Z,1001.47
2022-09-04T08:20:30.645Z,1001.48
2022-09-04T08:21:30.622Z,1001.46
2022-09-04T08:22:30.612Z,1001.52
2022-09-04T08:23:30.601Z,1001.57
2022-09-04T08:24:30.591Z,1001.64
2022-09-04T08:25:30.832Z,1001.62
2022-09-04T08:26:30.571Z,1001.66
2022-09-04T08:27:30.566Z,1001.59
2022-09-04T08:28:31.004Z,1001.65
2022-09-04T08:29:30.533Z,1001.63
2022-09-04T08:30:30.543Z,1001.65
2022-09-04T08:31:30.553Z,1001.67
2022-09-04T08:32:36.733Z,1001.66
2022-09-04T08:33:31.484Z,1001.68
2022-09-04T08:34:30.485Z,1001.65
2022-09-04T08:35:30.464Z,1001.65
2022-09-04T08:36:30.474Z,1001.59
2022-09-04T08:37:30.461Z,1001.59
2022-09-04T08:38:30.434Z,1001.63
2022-09-04T08:39:30.478Z,1001.61
2022-09-04T08:40:30.413Z,1001.62
2022-09-04T08:41:30.395Z,1001.67
2022-09-04T08:42:30.406Z,1001.62
2022-09-04T08:43:30.368Z,1001.65
2022-09-04T08:44:30.369Z,1001.60
2022-09-04T08:45:30.358Z,1001.72
2022-09-04T08:46:30.397Z,1001.61
2022-09-04T08:47:30.330Z,1001.77
2022-09-04T08:48:30.336Z,1001.66
2022-09-04T08:49:30.306Z,1001.86
2022-09-04T08:50:30.295Z,1001.83
2022-09-04T08:51:30.285Z,1001.80
2022-09-04T08:52:30.268Z,1001.90
2022-09-04T08:53:30.257Z,1001.85
2022-09-04T08:54:30.276Z,1001.85
2022-09-04T08:55:30.227Z,1001.79
2022-09-04T08:56:30.228Z,1001.95
2022-09-04T08:57:30.211Z,1001.91
2022-09-04T08:58:30.211Z,1002.00
2022-09-04T08:59:30.188Z,1001.89
2022-09-04T09:00:30.212Z,1001.94
2022-09-04T09:01:30.200Z,1002.00
2022-09-04T09:02:30.220Z,1002.01
2022-09-04T09:03:30.149Z,1001.98
2022-09-04T09:04:30.140Z,1001.89
2022-09-04T09:05:30.130Z,1001.81
2022-09-04T09:06:30.161Z,1001.93
2022-09-04T09:07:30.101Z,1001.98
2022-09-04T09:08:31.767Z,1001.86
2022-09-04T09:09:30.080Z,1002.00
2022-09-04T09:10:30.069Z,1001.97
2022-09-04T09:11:30.054Z,1001.95
2022-09-04T09:12:36.725Z,1001.89
2022-09-04T09:13:31.032Z,1001.90
2022-09-04T09:14:30.022Z,1001.97
2022-09-04T09:15:30.013Z,1001.94
2022-09-04T09:16:30.051Z,1001.93
2022-09-04T09:17:34.858Z,1001.98
2022-09-04T09:18:31.014Z,1002.07
2022-09-04T09:19:29.975Z,1001.98
2022-09-04T09:20:29.965Z,1001.91
2022-09-04T09:21:29.953Z,1002.02
2022-09-04T09:22:29.945Z,1002.00
2022-09-04T09:23:29.925Z,1001.93
2022-09-04T09:24:29.957Z,1002.01
2022-09-04T09:25:29.906Z,1001.92
2022-09-04T09:26:29.897Z,1001.99
2022-09-04T09:27:29.958Z,1002.04
2022-09-04T09:28:29.876Z,1001.99
2022-09-04T09:29:29.876Z,1001.97
2022-09-04T09:30:29.899Z,1001.92
2022-09-04T09:31:29.838Z,1001.99
2022-09-04T09:32:29.828Z,1001.90
2022-09-04T09:33:29.819Z,1001.74
2022-09-04T09:34:29.808Z,1001.68
2022-09-04T09:35:29.821Z,1001.70
2022-09-04T09:36:29.790Z,1001.65
2022-09-04T09:37:29.779Z,1001.68
2022-09-04T09:38:29.759Z,1001.71
2022-09-04T09:39:29.801Z,1001.63
2022-09-04T09:40:29.742Z,1001.61
2022-09-04T09:41:29.751Z,1001.61
2022-09-04T09:42:29.720Z,1001.66
2022-09-04T09:43:29.709Z,1001.63
2022-09-04T09:44:29.692Z,1001.61
2022-09-04T09:45:29.692Z,1001.67
2022-09-04T09:46:29.734Z,1001.65
2022-09-04T09:47:29.681Z,1001.62
2022-09-04T09:48:29.654Z,1001.62
2022-09-04T09:49:29.640Z,1001.58
2022-09-04T09:50:29.634Z,1001.53
2022-09-04T09:51:29.612Z,1001.57
2022-09-04T09:52:29.625Z,1001.52
2022-09-04T09:53:29.590Z,1001.54
2022-09-04T09:54:29.583Z,1001.56
2022-09-04T09:55:29.573Z,1001.52
2022-09-04T09:56:29.563Z,1001.55
2022-09-04T09:57:33.239Z,1001.55
2022-09-04T09:58:29.584Z,1001.50
2022-09-04T09:59:29.535Z,1001.49
2022-09-04T10:00:29.541Z,1001.48
2022-09-04T10:01:29.573Z,1001.49
2022-09-04T10:02:29.520Z,1001.49
2022-09-04T10:03:29.485Z,1001.50
2022-09-04T10:04:30.742Z,1001.44
2022-09-04T10:05:30.468Z,1001.44
2022-09-04T10:06:29.446Z,1001.50
2022-09-04T10:07:29.436Z,1001.47
2022-09-04T10:08:35.957Z,1001.48
2022-09-04T10:09:30.436Z,1001.41
2022-09-04T10:10:29.423Z,1001.45
2022-09-04T10:11:29.407Z,1001.43
2022-09-04T10:12:29.388Z,1001.43
2022-09-04T10:13:29.367Z,1001.40
2022-09-04T10:14:29.357Z,1001.42
2022-09-04T10:15:29.368Z,1001.42
2022-09-04T10:16:29.394Z,1001.43
2022-09-04T10:17:29.327Z,1001.46
2022-09-04T10:18:29.331Z,1001.51
2022-09-04T10:19:29.307Z,1001.44
2022-09-04T10:20:29.308Z,1001.41
2022-09-04T10:21:29.318Z,1001.44
2022-09-04T10:22:29.276Z,1001.43
2022-09-04T10:23:29.328Z,1001.44
2022-09-04T10:24:29.239Z,1001.42
2022-09-04T10:25:29.247Z,1001.41
2022-09-04T10:26:29.376Z,1001.42
2022-09-04T10:27:29.231Z,1001.41
2022-09-04T10:28:29.205Z,1001.46
2022-09-04T10:29:29.197Z,1001.39
2022-09-04T10:30:29.261Z,1001.35
2022-09-04T10:31:29.170Z,1001.38
2022-09-04T10:32:29.169Z,1001.28
2022-09-04T10:33:29.173Z,1001.33
2022-09-04T10:34:29.133Z,1001.27
2022-09-04T10:35:29.121Z,1001.28
2022-09-04T10:36:29.112Z,1001.21
2022-09-04T10:37:29.104Z,1001.31
2022-09-04T10:38:29.090Z,1001.24
2022-09-04T10:39:29.194Z,1001.27
2022-09-04T10:40:29.062Z,1001.25
2022-09-04T10:41:29.063Z,1001.29
2022-09-04T10:42:29.043Z,1001.23
2022-09-04T10:43:29.033Z,1001.28
2022-09-04T10:44:29.023Z,1001.24
2022-09-04T10:45:29.050Z,1001.28
2022-09-04T10:46:29.042Z,1001.25
2022-09-04T10:47:29.032Z,1001.21
2022-09-04T10:48:28.986Z,1001.16
2022-09-04T10:49:28.974Z,1001.20
2022-09-04T10:50:29.007Z,1001.30
2022-09-04T10:51:28.946Z,1001.30
2022-09-04T10:52:28.935Z,1001.26
2022-09-04T10:53:28.926Z,1001.29
2022-09-04T10:54:28.915Z,1001.28
2022-09-04T10:55:28.907Z,1001.27
2022-09-04T10:56:28.913Z,1001.28
2022-09-04T10:57:28.887Z,1001.22
2022-09-04T10:58:28.868Z,1001.26
2022-09-04T10:59:28.856Z,1001.25
2022-09-04T11:00:28.848Z,1001.31
2022-09-04T11:01:28.906Z,1001.28
2022-09-04T11:02:28.951Z,1001.26
2022-09-04T11:03:28.817Z,1001.24
2022-09-04T11:04:28.806Z,1001.28
2022-09-04T11:05:28.796Z,1001.22
2022-09-04T11:06:28.777Z,1001.27
2022-09-04T11:07:28.948Z,1001.24
2022-09-04T11:08:28.758Z,1001.22
2022-09-04T11:09:28.757Z,1001.25
2022-09-04T11:10:28.739Z,1001.21
2022-09-04T11:11:28.727Z,1001.27
2022-09-04T11:12:28.709Z,1001.20
2022-09-04T11:13:28.719Z,1001.23
2022-09-04T11:14:28.690Z,1001.20
2022-09-04T11:15:28.679Z,1001.25
2022-09-04T11:16:28.714Z,1001.23
2022-09-04T11:17:28.659Z,1001.20
2022-09-04T11:18:28.668Z,1001.35
2022-09-04T11:19:28.640Z,1001.30
2022-09-04T11:20:28.620Z,1001.24
2022-09-04T11:21:28.610Z,1001.27
2022-09-04T11:22:28.601Z,1001.26
2022-09-04T11:23:28.591Z,1001.27
2022-09-04T11:24:28.601Z,1001.25
2022-09-04T11:25:28.572Z,1001.23
2022-09-04T11:26:28.565Z,1001.28
2022-09-04T11:27:28.550Z,1001.26
2022-09-04T11:28:28.532Z,1001.26
2022-09-04T11:29:28.522Z,1001.24
2022-09-04T11:30:28.533Z,1001.21
2022-09-04T11:31:28.545Z,1001.23
2022-09-04T11:32:28.492Z,1001.24
2022-09-04T11:33:28.483Z,1001.11
2022-09-04T11:34:28.473Z,1001.17
2022-09-04T11:35:28.535Z,1001.19
2022-09-04T11:36:28.464Z,1001.18
2022-09-04T11:37:28.434Z,1001.13
2022-09-04T11:38:28.433Z,1001.17
2022-09-04T11:39:28.435Z,1001.10
2022-09-04T11:40:28.405Z,1001.20
2022-09-04T11:41:28.419Z,1001.13
2022-09-04T11:42:28.387Z,1001.19
2022-09-04T11:43:28.365Z,1001.17
2022-09-04T11:44:28.356Z,1001.13
2022-09-04T11:45:28.391Z,1001.20
2022-09-04T11:46:31.044Z,1001.15
2022-09-04T11:47:28.356Z,1001.21
2022-09-04T11:48:28.317Z,1001.18
2022-09-04T11:49:28.325Z,1001.20
2022-09-04T11:50:28.295Z,1001.21
2022-09-04T11:51:28.287Z,1001.21
2022-09-04T11:52:28.298Z,1001.19
2022-09-04T11:53:28.277Z,1001.18
2022-09-04T11:54:28.250Z,1001.21
2022-09-04T11:55:28.238Z,1001.21
2022-09-04T11:56:28.229Z,1001.21
2022-09-04T11:57:28.219Z,1001.20
2022-09-04T11:58:28.230Z,1001.20
2022-09-04T11:59:28.200Z,1001.24
2022-09-04T12:00:28.178Z,1001.25
2022-09-04T12:01:28.178Z,1001.22
2022-09-04T12:02:28.282Z,1001.19
2022-09-04T12:03:28.214Z,1001.15
2022-09-04T12:04:28.160Z,1001.18
2022-09-04T12:05:28.130Z,1001.23
2022-09-04T12:06:28.110Z,1001.26
2022-09-04T12:07:31.936Z,1001.21
2022-09-04T12:08:29.099Z,1001.18
2022-09-04T12:09:28.090Z,1001.16
2022-09-04T12:10:28.091Z,1001.16
2022-09-04T12:11:28.092Z,1001.20
2022-09-04T12:12:28.052Z,1001.17
2022-09-04T12:13:28.325Z,1001.17
2022-09-04T12:14:28.029Z,1001.19
2022-09-04T12:15:28.044Z,1001.18